Time;durP1;ratioP1;P1;durP2;ratioP2;P2;SDS_P1;SDS_P2;PMS_P1;PMS_P2;Temp;Humidity;BMP_temperature;BMP_pressure;BME280_temperature;BME280_humidity;BME280_pressure;Samples;Min_cycle;Max_cycle;Signal;HPM_P1;HPM_P2
2022/10/21 00:00:17;;;;;;;38.63;22.55;;;;;;;11.24;100.00;100618.97;10358384;28;20034;-77
2022/10/21 00:05:17;;;;;;;44.28;19.90;;;;;;;11.16;100.00;100609.06;10340878;28;20853;-78
2022/10/21 00:10:18;;;;;;;22.48;13.05;;;;;;;11.05;100.00;100605.13;10322538;28;20050;-77
2022/10/21 00:15:20;;;;;;;32.50;16.90;;;;;;;10.97;100.00;100609.16;10362890;28;20137;-78
2022/10/21 00:20:20;;;;;;;38.23;23.53;;;;;;;10.98;100.00;100608.31;10364013;28;20041;-78
2022/10/21 00:25:21;;;;;;;36.95;23.75;;;;;;;11.18;100.00;100603.00;10347200;28;20053;-78
2022/10/21 00:30:21;;;;;;;179.88;37.45;;;;;;;11.10;100.00;100594.84;10364087;28;20148;-79
2022/10/21 00:35:22;;;;;;;133.55;32.38;;;;;;;10.90;100.00;100584.44;10361785;28;20072;-79
2022/10/21 00:40:22;;;;;;;26.20;14.30;;;;;;;10.72;100.00;100579.31;10363975;28;20042;-79
2022/10/21 00:45:27;;;;;;;54.55;23.15;;;;;;;10.56;100.00;100583.88;10365070;28;20124;-79
2022/10/21 00:50:29;;;;;;;49.22;22.20;;;;;;;10.46;100.00;100573.84;10363712;28;20448;-80
2022/10/21 00:55:31;;;;;;;;;;;;;;;10.42;100.00;100567.63;10362946;28;21927;-79
2022/10/21 01:00:31;;;;;;;245.23;44.60;;;;;;;10.27;100.00;100559.94;10363429;28;20330;-79
2022/10/21 01:05:32;;;;;;;30.73;13.15;;;;;;;10.10;100.00;100548.75;10361857;28;20121;-79
2022/10/21 01:10:32;;;;;;;66.15;27.33;;;;;;;10.03;100.00;100548.38;10336631;28;20152;-79
2022/10/21 01:16:09;;;;;;;95.13;22.58;;;;;;;9.94;100.00;100534.09;10360550;28;20030;-80
2022/10/21 01:21:24;;;;;;;50.20;16.00;;;;;;;9.82;100.00;100534.44;10361037;28;20486;-80
2022/10/21 01:26:53;;;;;;;32.80;18.95;;;;;;;9.77;100.00;100535.94;10361842;28;20092;-79
2022/10/21 01:32:24;;;;;;;26.30;16.30;;;;;;;9.72;100.00;100526.09;10350272;28;20046;-80
2022/10/21 01:37:29;;;;;;;50.03;18.73;;;;;;;9.65;100.00;100520.59;10361925;28;20633;-79
2022/10/21 01:42:39;;;;;;;97.05;26.67;;;;;;;9.66;100.00;100521.50;10329071;28;20520;-80
2022/10/21 01:47:42;;;;;;;81.97;21.52;;;;;;;9.59;100.00;100498.53;10340763;28;20389;-80
2022/10/21 01:52:43;;;;;;;30.42;18.00;;;;;;;9.54;100.00;100490.47;10344347;28;20053;-81
2022/10/21 01:57:47;;;;;;;73.90;22.40;;;;;;;9.52;100.00;100487.78;10359925;28;20111;-79
2022/10/21 02:02:48;;;;;;;173.75;34.33;;;;;;;9.52;100.00;100494.72;10343555;28;20053;-78
2022/10/21 02:07:48;;;;;;;96.05;22.10;;;;;;;9.49;100.00;100490.28;10323319;28;20046;-78
2022/10/21 02:12:49;;;;;;;115.03;27.10;;;;;;;9.50;100.00;100471.16;10344524;28;20501;-79
2022/10/21 02:17:56;;;;;;;95.50;30.27;;;;;;;9.22;100.00;100477.72;10332249;28;20038;-79
2022/10/21 02:22:56;;;;;;;42.92;22.38;;;;;;;9.01;100.00;100479.31;10335944;28;20045;-79
2022/10/21 02:27:57;;;;;;;38.58;20.08;;;;;;;8.86;100.00;100466.41;10358536;28;20061;-79
2022/10/21 02:33:05;;;;;;;85.97;23.27;;;;;;;8.85;100.00;100457.69;10342637;28;20041;-79
2022/10/21 02:38:13;;;;;;;22.67;13.02;;;;;;;8.77;100.00;100457.31;10341793;28;20038;-79
2022/10/21 02:43:46;;;;;;;20.58;13.63;;;;;;;8.82;100.00;100457.56;10331968;28;20050;-78
2022/10/21 02:48:47;;;;;;;49.60;15.95;;;;;;;8.71;100.00;100458.75;10304852;28;20042;-78
2022/10/21 02:53:48;;;;;;;254.45;33.42;;;;;;;8.75;100.00;100453.72;10342626;28;20038;-79
2022/10/21 02:58:48;;;;;;;76.50;16.17;;;;;;;8.65;100.00;100455.03;10358528;28;20522;-79
2022/10/21 03:03:49;;;;;;;79.60;23.20;;;;;;;8.67;100.00;100457.69;10337188;28;20056;-79
2022/10/21 03:08:49;;;;;;;33.17;18.38;;;;;;;8.64;100.00;100460.16;10358825;28;20045;-79
2022/10/21 03:13:50;;;;;;;46.05;22.20;;;;;;;8.67;100.00;100460.28;10359007;28;20052;-79
2022/10/21 03:18:50;;;;;;;88.85;29.13;;;;;;;8.67;100.00;100462.91;10358570;28;20125;-79
2022/10/21 03:23:51;;;;;;;36.75;20.85;;;;;;;8.57;100.00;100461.56;10336147;28;20402;-78
2022/10/21 03:28:51;;;;;;;51.83;24.35;;;;;;;8.47;100.00;100457.56;10332290;28;20044;-78
2022/10/21 03:33:52;;;;;;;68.93;19.00;;;;;;;8.37;100.00;100469.28;10329486;28;20038;-78
2022/10/21 03:38:52;;;;;;;43.85;17.85;;;;;;;8.21;100.00;100458.88;10354806;28;20060;-78
2022/10/21 03:44:00;;;;;;;45.28;18.80;;;;;;;8.07;100.00;100452.97;10360295;28;20073;-78
2022/10/21 03:49:01;;;;;;;29.95;17.75;;;;;;;7.90;100.00;100452.09;10364963;28;20120;-79
2022/10/21 03:54:01;;;;;;;24.30;15.68;;;;;;;7.93;100.00;100454.88;10349805;28;20044;-78
2022/10/21 03:59:02;;;;;;;25.50;14.23;;;;;;;7.98;100.00;100444.66;10364638;28;20386;-79
2022/10/21 04:04:02;;;;;;;152.65;34.58;;;;;;;8.02;100.00;100431.88;10348833;28;20149;-79
2022/10/21 04:09:03;;;;;;;34.63;18.45;;;;;;;8.18;100.00;100446.56;10348051;28;20048;-79
2022/10/21 04:14:04;;;;;;;30.08;15.70;;;;;;;8.22;100.00;100451.13;10363821;28;20046;-79
2022/10/21 04:19:04;;;;;;;31.13;17.02;;;;;;;8.22;100.00;100451.13;10364406;28;20045;-78
2022/10/21 04:24:05;;;;;;;72.72;23.50;;;;;;;8.24;100.00;100464.25;10348554;28;20206;-81
2022/10/21 04:29:05;;;;;;;28.25;15.32;;;;;;;8.38;100.00;100452.81;10364620;28;20542;-80
2022/10/21 04:34:06;;;;;;;33.83;17.77;;;;;;;8.51;100.00;100456.06;10363538;28;20064;-82
2022/10/21 04:39:06;;;;;;;43.65;19.42;;;;;;;8.66;100.00;100455.91;10363948;28;20401;-82
2022/10/21 04:44:08;;;;;;;47.38;21.65;;;;;;;8.76;100.00;100454.66;10346094;28;20382;-82
2022/10/21 04:49:08;;;;;;;52.80;22.40;;;;;;;8.74;100.00;100451.94;10359669;28;20065;-80
2022/10/21 04:54:09;;;;;;;54.63;21.58;;;;;;;8.68;100.00;100456.88;10359173;28;20107;-80
2022/10/21 04:59:09;;;;;;;60.55;30.65;;;;;;;8.59;100.00;100441.69;10362091;28;20103;-83
2022/10/21 05:04:10;;;;;;;55.92;24.77;;;;;;;8.48;100.00;100433.28;10360044;28;20118;-83
2022/10/21 05:09:10;;;;;;;29.88;16.80;;;;;;;8.47;100.00;100426.28;10360462;28;20130;-84
2022/10/21 05:14:11;;;;;;;113.88;21.13;;;;;;;8.45;100.00;100414.88;10350976;28;20042;-83
2022/10/21 05:19:11;;;;;;;99.32;26.85;;;;;;;8.38;100.00;100405.88;10361520;28;20482;-80
2022/10/21 05:24:13;;;;;;;54.08;22.55;;;;;;;8.44;100.00;100409.59;10363224;28;20056;-84
2022/10/21 05:29:13;;;;;;;42.37;20.53;;;;;;;8.38;100.00;100392.81;10343909;28;20407;-83
2022/10/21 05:34:14;;;;;;;78.85;23.10;;;;;;;8.38;100.00;100394.53;10324724;28;20052;-84
2022/10/21 05:39:15;;;;;;;32.38;14.55;;;;;;;8.38;100.00;100392.81;10360014;28;20045;-83
2022/10/21 05:44:16;;;;;;;23.92;13.70;;;;;;;8.50;100.00;100387.34;10356574;28;20038;-83
2022/10/21 05:49:16;;;;;;;44.35;18.27;;;;;;;8.63;100.00;100374.88;10360442;28;20034;-81
2022/10/21 05:54:17;;;;;;;50.15;18.58;;;;;;;8.73;100.00;100371.88;10341422;28;20505;-83
2022/10/21 05:59:17;;;;;;;47.33;21.33;;;;;;;8.81;100.00;100374.88;10358935;28;20042;-85
2022/10/21 06:04:18;;;;;;;34.80;18.98;;;;;;;8.91;100.00;100371.88;10360335;28;20034;-81
2022/10/21 06:09:19;;;;;;;45.35;21.67;;;;;;;8.96;100.00;100370.38;10358350;28;20049;-81
2022/10/21 06:14:19;;;;;;;32.15;17.98;;;;;;;9.03;100.00;100371.53;10355877;28;20124;-85
2022/10/21 06:19:20;;;;;;;25.08;12.93;;;;;;;9.10;100.00;100384.03;10359685;28;20532;-83
2022/10/21 06:24:21;;;;;;;55.35;20.38;;;;;;;9.17;100.00;100392.16;10361381;28;20053;-83
2022/10/21 06:29:22;;;;;;;30.58;16.00;;;;;;;9.29;100.00;100387.47;10360009;28;20104;-85
2022/10/21 06:34:23;;;;;;;28.00;17.13;;;;;;;9.41;100.00;100400.22;10359979;28;20402;-86
2022/10/21 06:39:24;;;;;;;40.38;20.17;;;;;;;9.54;100.00;100401.63;10358340;28;20033;-86
2022/10/21 06:44:24;;;;;;;53.90;20.83;;;;;;;9.65;100.00;100415.19;10358801;28;20068;-86
2022/10/21 06:49:25;;;;;;;36.10;17.63;;;;;;;9.78;100.00;100438.44;10356718;28;20153;-87
2022/10/21 06:54:26;;;;;;;30.25;16.80;;;;;;;9.91;100.00;100438.97;10354510;28;20038;-87
2022/10/21 06:59:26;;;;;;;32.20;16.95;;;;;;;9.95;100.00;100452.22;10335816;28;20417;-89
2022/10/21 07:04:27;;;;;;;36.25;19.05;;;;;;;9.99;100.00;100448.91;10325608;28;20148;-87
2022/10/21 07:09:29;;;;;;;35.42;14.68;;;;;;;10.09;100.00;100444.06;10350681;28;20121;-88
2022/10/21 07:14:30;;;;;;;40.93;17.53;;;;;;;10.18;100.00;100447.06;10356723;28;20110;-87
2022/10/21 07:19:31;;;;;;;32.20;15.20;;;;;;;10.33;100.00;100443.31;10356755;28;20057;-84
2022/10/21 07:24:32;;;;;;;40.55;16.15;;;;;;;10.42;100.00;100459.44;10353210;28;20050;-80
2022/10/21 07:29:32;;;;;;;44.50;17.83;;;;;;;10.46;100.00;100460.47;10351549;28;20042;-83
2022/10/21 07:34:33;;;;;;;41.20;18.55;;;;;;;10.55;100.00;100442.53;10338400;28;20056;-82
2022/10/21 07:39:33;;;;;;;32.63;15.80;;;;;;;10.61;100.00;100434.94;10352608;28;20042;-79
2022/10/21 07:44:34;;;;;;;40.58;17.08;;;;;;;10.74;100.00;100433.69;10356871;28;20057;-81
2022/10/21 07:49:34;;;;;;;38.30;16.98;;;;;;;10.83;100.00;100435.78;10355911;28;20045;-82
2022/10/21 07:54:35;;;;;;;34.40;16.75;;;;;;;10.88;100.00;100439.50;10354792;28;20501;-81
2022/10/21 07:59:36;;;;;;;54.28;16.60;;;;;;;11.06;100.00;100448.91;10353379;28;20053;-83
2022/10/21 08:04:36;;;;;;;36.30;17.02;;;;;;;11.16;100.00;100445.81;10336986;28;20498;-79
2022/10/21 08:09:37;;;;;;;36.50;16.17;;;;;;;11.27;100.00;100449.72;10356255;28;20403;-82
2022/10/21 08:14:38;;;;;;;36.60;17.00;;;;;;;11.38;100.00;100447.50;10353286;28;20490;-83
2022/10/21 08:19:39;;;;;;;31.42;16.67;;;;;;;11.54;100.00;100446.34;10351702;28;20133;-83
2022/10/21 08:24:39;;;;;;;31.38;18.10;;;;;;;11.60;100.00;100450.91;10346330;28;20482;-83
2022/10/21 08:29:40;;;;;;;36.65;15.70;;;;;;;11.58;100.00;100455.22;10355724;28;20061;-86
2022/10/21 08:34:40;;;;;;;32.10;16.67;;;;;;;11.57;100.00;100487.50;10342855;28;20374;-84
2022/10/21 08:39:41;;;;;;;32.58;18.98;;;;;;;11.58;100.00;100481.41;10335590;28;20042;-82
2022/10/21 08:45:01;;;;;;;39.60;19.60;;;;;;;11.75;100.00;100482.94;10364610;28;20070;-81
2022/10/21 08:50:05;;;;;;;37.22;20.30;;;;;;;11.94;100.00;100477.47;10362987;28;20390;-82
2022/10/21 08:55:12;;;;;;;35.28;17.17;;;;;;;12.07;100.00;100464.00;10362727;28;20065;-83
2022/10/21 09:00:14;;;;;;;32.75;18.00;;;;;;;12.17;100.00;100467.81;10361361;28;20052;-82
2022/10/21 09:05:18;;;;;;;33.20;15.40;;;;;;;12.24;100.00;100514.41;10344148;28;20038;-82
2022/10/21 09:10:50;;;;;;;36.20;16.65;;;;;;;12.31;100.00;100502.41;10344244;28;20414;-82
2022/10/21 09:16:20;;;;;;;29.13;16.08;;;;;;;12.31;100.00;100511.16;10361558;28;20104;-82
2022/10/21 09:22:02;;;;;;;27.20;14.60;;;;;;;12.31;100.00;100512.91;10333714;28;20494;-82
2022/10/21 09:27:03;;;;;;;29.10;14.77;;;;;;;12.29;100.00;100520.72;10280604;28;20034;-83
2022/10/21 09:32:03;;;;;;;23.73;12.65;;;;;;;12.37;100.00;100534.13;10360521;28;20042;-82
2022/10/21 09:37:04;;;;;;;26.85;15.80;;;;;;;12.47;100.00;100551.06;10361731;28;20045;-82
2022/10/21 09:42:05;;;;;;;28.73;16.80;;;;;;;12.57;100.00;100539.16;10343063;28;20497;-83
2022/10/21 09:47:17;;;;;;;31.95;16.00;;;;;;;12.81;100.00;100546.97;10344340;28;20165;-82
2022/10/21 09:52:18;;;;;;;;;;;;;;;12.92;100.00;100548.22;10339664;28;20053;-81
2022/10/21 09:57:35;;;;;;;26.80;15.75;;;;;;;13.01;100.00;100554.63;10358192;28;20300;-80
2022/10/21 10:02:37;;;;;;;33.60;19.33;;;;;;;13.04;100.00;100555.63;10360289;28;20034;-80
2022/10/21 10:07:38;;;;;;;38.90;18.17;;;;;;;13.14;100.00;100558.56;10343617;28;20050;-82
2022/10/21 10:12:39;;;;;;;43.22;23.52;;;;;;;13.45;100.00;100554.28;10358884;28;20037;-78
2022/10/21 10:17:39;;;;;;;29.73;15.90;;;;;;;13.57;100.00;100561.66;10358358;28;20069;-80
2022/10/21 10:22:41;;;;;;;34.83;19.42;;;;;;;13.88;100.00;100574.00;10357870;28;20038;-87
2022/10/21 10:28:01;;;;;;;34.22;19.65;;;;;;;14.16;100.00;100572.16;10357455;28;20073;-80
2022/10/21 10:33:06;;;;;;;25.88;15.02;;;;;;;14.59;100.00;100574.19;10353037;28;20064;-81
2022/10/21 10:38:14;;;;;;;31.70;17.33;;;;;;;14.81;100.00;100568.66;10355921;28;20037;-81
2022/10/21 10:43:23;;;;;;;27.30;15.35;;;;;;;15.31;100.00;100558.41;10342387;28;20088;-81
2022/10/21 10:48:43;;;;;;;24.10;13.18;;;;;;;15.55;100.00;100563.38;10339720;28;20038;-80
2022/10/21 10:53:43;;;;;;;17.88;11.50;;;;;;;15.93;100.00;100570.34;10344147;28;20402;-80
2022/10/21 10:59:00;;;;;;;22.00;10.02;;;;;;;16.47;100.00;100550.28;10358893;28;20061;-80
2022/10/21 11:04:15;;;;;;;9.50;4.40;;;;;;;16.79;100.00;100544.69;10341430;28;20056;-78
2022/10/21 11:09:16;;;;;;;9.32;4.38;;;;;;;18.12;100.00;100552.78;10322111;28;20038;-80
2022/10/21 11:14:17;;;;;;;10.97;3.77;;;;;;;18.48;93.95;100543.47;10323629;28;20061;-79
2022/10/21 11:19:48;;;;;;;6.57;4.30;;;;;;;19.66;86.16;100529.31;10355643;28;20121;-79
2022/10/21 11:24:55;;;;;;;11.35;4.38;;;;;;;19.83;84.74;100525.84;10355963;28;20045;-79
2022/10/21 11:30:13;;;;;;;7.80;2.95;;;;;;;20.68;79.44;100517.22;10332499;28;20505;-78
2022/10/21 11:35:28;;;;;;;8.65;2.85;;;;;;;24.46;62.87;100507.41;10355610;28;20042;-79
2022/10/21 11:40:35;;;;;;;6.15;1.38;;;;;;;25.62;56.98;100509.84;10337713;28;20049;-80
2022/10/21 11:45:42;;;;;;;10.60;3.25;;;;;;;26.39;55.14;100510.84;10354028;28;20048;-80
2022/10/21 11:50:54;;;;;;;2.90;1.30;;;;;;;25.26;56.83;100490.88;10339611;28;20046;-81
2022/10/21 11:56:07;;;;;;;;;;;;;;;24.37;57.27;100491.50;10357345;28;20038;-78
2022/10/21 12:01:45;;;;;;;3.35;0.90;;;;;;;23.63;57.90;100494.25;10343016;28;19949;-78
2022/10/21 12:07:27;;;;;;;1.30;0.77;;;;;;;21.77;67.56;100501.09;10364049;28;20398;-80
2022/10/21 12:12:29;;;;;;;;;;;;;;;20.62;72.83;100506.56;10302245;28;20069;-80
2022/10/21 12:17:32;;;;;;;3.38;1.02;;;;;;;19.70;75.24;100516.06;10363572;28;19918;-78
2022/10/21 12:22:33;;;;;;;6.63;1.30;;;;;;;19.93;77.48;100509.09;10348499;28;20042;-80
2022/10/21 12:27:45;;;;;;;3.00;1.15;;;;;;;20.47;73.70;100516.31;10346737;28;20125;-80
2022/10/21 12:33:05;;;;;;;3.25;1.33;;;;;;;20.10;74.69;100508.25;10362872;28;20041;-80
2022/10/21 12:38:23;;;;;;;2.10;0.90;;;;;;;22.47;66.62;100522.06;10362460;28;20065;-79
2022/10/21 12:43:27;;;;;;;5.20;2.10;;;;;;;22.30;64.34;100525.69;10364683;28;20096;-81
2022/10/21 12:48:38;;;;;;;2.35;0.70;;;;;;;25.37;55.69;100504.94;10362415;28;20052;-79
2022/10/21 12:53:50;;;;;;;3.70;0.90;;;;;;;26.79;51.44;100509.00;10348591;28;20096;-78
2022/10/21 12:58:53;;;;;;;2.97;0.70;;;;;;;25.27;53.74;100506.94;10347753;28;20042;-79
2022/10/21 13:03:54;;;;;;;9.20;1.63;;;;;;;23.39;61.10;100509.66;10345652;28;20129;-84
2022/10/21 13:08:55;;;;;;;2.37;1.07;;;;;;;22.88;63.27;100500.38;10345536;28;20486;-82
2022/10/21 13:14:17;;;;;;;4.60;0.77;;;;;;;21.62;69.24;100512.66;10345995;28;20045;-83
2022/10/21 13:19:18;;;;;;;3.22;1.10;;;;;;;20.82;75.97;100506.63;10360546;28;20135;-83
2022/10/21 13:24:31;;;;;;;5.85;0.85;;;;;;;22.80;68.72;100514.69;10361111;28;20056;-82
2022/10/21 13:29:47;;;;;;;5.95;0.90;;;;;;;21.46;71.96;100506.50;10361335;28;20133;-84
2022/10/21 13:34:47;;;;;;;32.22;18.40;;;;;;;19.78;78.30;100499.28;10362456;28;20041;-84
2022/10/21 13:39:48;;;;;;;2.15;0.75;;;;;;;19.20;79.98;100500.78;10361066;28;20057;-82
2022/10/21 13:44:54;;;;;;;17.27;1.30;;;;;;;19.04;85.48;100496.25;10357128;28;20129;-82
2022/10/21 13:50:17;;;;;;;3.42;1.42;;;;;;;19.47;86.74;100501.81;10342083;28;20041;-82
2022/10/21 13:55:20;;;;;;;8.77;1.00;;;;;;;19.48;76.30;100500.03;10346870;28;20133;-80
2022/10/21 14:00:24;;;;;;;2.58;0.73;;;;;;;19.55;80.66;100504.50;10360514;28;20366;-81
2022/10/21 14:05:57;;;;;;;3.50;1.13;;;;;;;19.34;77.56;100492.88;10359572;28;20516;-83
2022/10/21 14:11:27;;;;;;;6.50;2.03;;;;;;;20.33;75.31;100496.78;10349284;28;20045;-82
2022/10/21 14:16:31;;;;;;;7.35;0.90;;;;;;;21.55;72.51;100496.72;10371254;28;20092;-81
2022/10/21 14:21:38;;;;;;;3.22;1.17;;;;;;;21.87;67.99;100502.81;10357570;28;20038;-80
2022/10/21 14:26:44;;;;;;;3.67;1.05;;;;;;;23.16;63.89;100494.75;10359198;28;20057;-80
2022/10/21 14:31:45;;;;;;;4.03;0.95;;;;;;;22.29;64.04;100506.13;10344295;28;20038;-80
2022/10/21 14:37:02;;;;;;;3.85;0.85;;;;;;;22.02;66.91;100498.28;10356387;28;20042;-80
2022/10/21 14:42:05;;;;;;;2.40;1.08;;;;;;;22.70;64.35;100497.84;10357476;28;20164;-82
2022/10/21 14:47:05;;;;;;;4.85;1.25;;;;;;;22.79;63.20;100491.56;10336364;28;20058;-83
2022/10/21 14:52:07;;;;;;;3.40;1.47;;;;;;;22.51;65.24;100498.00;10350532;28;20124;-83
2022/10/21 14:57:30;;;;;;;14.70;1.42;;;;;;;22.00;66.87;100503.66;10354722;28;20065;-84
2022/10/21 15:02:33;;;;;;;8.27;2.13;;;;;;;20.10;74.71;100513.56;10357887;28;20046;-83
2022/10/21 15:07:37;;;;;;;8.23;1.63;;;;;;;19.21;78.02;100520.22;10327784;28;20137;-83
2022/10/21 15:12:52;;;;;;;4.30;1.42;;;;;;;18.37;80.04;100522.16;10359137;28;20053;-81
2022/10/21 15:17:59;;;;;;;7.18;1.52;;;;;;;18.30;81.68;100522.97;10352655;28;20519;-83
2022/10/21 15:22:59;;;;;;;9.70;1.25;;;;;;;18.23;81.68;100521.13;10346079;28;20066;-83
2022/10/21 15:28:10;;;;;;;9.55;1.20;;;;;;;17.72;83.43;100517.00;10322300;28;20116;-82
2022/10/21 15:33:11;;;;;;;9.50;3.05;;;;;;;16.90;87.73;100514.91;10331903;28;20378;-83
2022/10/21 15:38:12;;;;;;;11.35;3.00;;;;;;;16.31;93.03;100517.41;10333951;28;20041;-82
2022/10/21 15:43:12;;;;;;;4.22;1.50;;;;;;;15.81;96.85;100518.19;10352554;28;20049;-82
2022/10/21 15:48:14;;;;;;;10.43;2.78;;;;;;;15.57;100.00;100525.59;10352830;28;20056;-82
2022/10/21 15:53:14;;;;;;;9.53;2.17;;;;;;;15.12;100.00;100528.97;10337885;28;20042;-82
2022/10/21 15:58:15;;;;;;;13.93;1.88;;;;;;;14.83;100.00;100531.78;10354772;28;20485;-82
2022/10/21 16:03:16;;;;;;;8.93;2.70;;;;;;;14.61;100.00;100530.34;10355978;28;20134;-82
2022/10/21 16:08:17;;;;;;;9.48;2.53;;;;;;;14.44;100.00;100537.78;10354522;28;20116;-83
2022/10/21 16:13:18;;;;;;;20.25;2.53;;;;;;;14.12;100.00;100527.28;10353431;28;20042;-80
2022/10/21 16:18:19;;;;;;;9.68;3.47;;;;;;;13.98;100.00;100532.16;10353186;28;20045;-82
2022/10/21 16:23:19;;;;;;;11.02;2.85;;;;;;;13.87;100.00;100529.22;10354453;28;20467;-84
2022/10/21 16:28:20;;;;;;;6.68;2.10;;;;;;;13.64;100.00;100529.44;10356027;28;20041;-84
2022/10/21 16:33:21;;;;;;;8.50;2.58;;;;;;;13.47;100.00;100526.31;10357629;28;20056;-84
2022/10/21 16:38:22;;;;;;;18.42;2.60;;;;;;;13.38;100.00;100521.63;10351826;28;20113;-82
2022/10/21 16:43:22;;;;;;;7.03;2.55;;;;;;;13.27;100.00;100531.81;10354426;28;20129;-84
2022/10/21 16:48:23;;;;;;;24.05;3.60;;;;;;;13.08;100.00;100538.22;10355444;28;20038;-82
2022/10/21 16:53:27;;;;;;;14.88;3.17;;;;;;;12.89;100.00;100540.22;10358498;28;20038;-83
2022/10/21 16:58:28;;;;;;;8.55;2.25;;;;;;;12.87;100.00;100546.28;10360244;28;20088;-82
2022/10/21 17:03:29;;;;;;;8.57;2.47;;;;;;;12.71;100.00;100547.50;10360966;28;20433;-82
2022/10/21 17:08:29;;;;;;;10.38;2.33;;;;;;;12.66;100.00;100552.63;10361588;28;20092;-79
2022/10/21 17:13:30;;;;;;;35.78;14.95;;;;;;;12.61;100.00;100560.31;10361036;28;20065;-83
2022/10/21 17:18:30;;;;;;;35.95;18.77;;;;;;;12.55;100.00;100562.72;10361794;28;20040;-83
2022/10/21 17:23:31;;;;;;;14.23;4.68;;;;;;;12.43;100.00;100565.84;10363904;28;20053;-88
2022/10/21 17:28:31;;;;;;;11.90;6.45;;;;;;;12.29;100.00;100573.19;10343901;28;20042;-82
2022/10/21 17:33:32;;;;;;;19.48;3.50;;;;;;;12.24;100.00;100577.38;10361033;28;20120;-82
2022/10/21 17:38:32;;;;;;;15.00;2.30;;;;;;;12.10;100.00;100586.47;10360270;28;20038;-84
2022/10/21 17:43:33;;;;;;;8.55;2.60;;;;;;;12.01;100.00;100594.91;10358195;28;20057;-86
2022/10/21 17:48:33;;;;;;;20.73;3.33;;;;;;;11.95;100.00;100597.28;10358588;28;20046;-85
2022/10/21 17:53:34;;;;;;;13.93;3.92;;;;;;;11.99;100.00;100600.06;10359916;28;20069;-84
2022/10/21 17:58:35;;;;;;;7.20;2.22;;;;;;;11.94;100.00;100608.59;10359309;28;20430;-84
2022/10/21 18:03:35;;;;;;;16.10;3.78;;;;;;;11.93;100.00;100606.81;10359679;28;20034;-83
2022/10/21 18:08:36;;;;;;;21.30;4.30;;;;;;;11.88;100.00;100615.41;10342285;28;20045;-83
2022/10/21 18:13:37;;;;;;;10.93;3.65;;;;;;;11.80;100.00;100615.94;10359511;28;20386;-82
2022/10/21 18:18:38;;;;;;;13.27;2.95;;;;;;;11.73;100.00;100620.94;10340839;28;20042;-82
2022/10/21 18:23:40;;;;;;;19.60;3.75;;;;;;;11.74;100.00;100627.97;10340497;28;20052;-83
2022/10/21 18:28:40;;;;;;;17.53;3.90;;;;;;;11.81;100.00;100623.88;10355579;28;20065;-83
2022/10/21 18:33:41;;;;;;;17.48;6.97;;;;;;;11.73;100.00;100631.41;10355906;28;20356;-83
2022/10/21 18:38:41;;;;;;;13.52;5.93;;;;;;;11.68;100.00;100638.22;10360320;28;20184;-80
2022/10/21 18:43:47;;;;;;;21.60;4.10;;;;;;;11.60;100.00;100642.25;10340927;28;20556;-85
2022/10/21 18:48:48;;;;;;;14.07;4.97;;;;;;;11.59;100.00;100645.72;10327710;28;20359;-85
2022/10/21 18:53:49;;;;;;;11.73;3.30;;;;;;;11.53;100.00;100635.88;10357434;28;20038;-85
2022/10/21 18:58:50;;;;;;;11.45;3.95;;;;;;;11.38;100.00;100635.28;10341412;28;20045;-85
2022/10/21 19:03:54;;;;;;;14.98;3.40;;;;;;;11.18;100.00;100629.19;10342642;28;20103;-84
2022/10/21 19:08:54;;;;;;;17.63;5.50;;;;;;;11.21;100.00;100635.47;10356620;28;20030;-86
2022/10/21 19:13:55;;;;;;;13.68;3.60;;;;;;;11.18;100.00;100639.69;10359271;28;20034;-84
2022/10/21 19:18:55;;;;;;;23.48;4.75;;;;;;;11.19;100.00;100631.00;10358576;28;20038;-86
2022/10/21 19:24:00;;;;;;;10.35;3.33;;;;;;;11.26;100.00;100633.94;10357371;28;20128;-85
2022/10/21 19:29:02;;;;;;;13.70;3.65;;;;;;;11.21;100.00;100627.63;10357483;28;20045;-84
2022/10/21 19:34:02;;;;;;;13.13;3.22;;;;;;;11.06;100.00;100629.59;10356054;28;20041;-85
2022/10/21 19:39:03;;;;;;;37.75;5.47;;;;;;;11.06;100.00;100635.72;10357260;28;20076;-86
2022/10/21 19:44:07;;;;;;;10.73;3.42;;;;;;;10.92;100.00;100631.63;10342064;28;20493;-85
2022/10/21 19:49:08;;;;;;;19.15;4.85;;;;;;;10.90;100.00;100639.44;10348295;28;20042;-85
2022/10/21 19:54:10;;;;;;;16.27;5.07;;;;;;;10.76;100.00;100638.81;10354270;28;20056;-86
2022/10/21 19:59:11;;;;;;;16.90;4.97;;;;;;;10.71;100.00;100643.88;10340795;28;20034;-85
2022/10/21 20:04:11;;;;;;;22.98;4.68;;;;;;;10.71;100.00;100651.72;10355074;28;20038;-85
2022/10/21 20:09:13;;;;;;;27.38;5.88;;;;;;;10.68;100.00;100648.97;10340046;28;20046;-86
2022/10/21 20:14:14;;;;;;;11.13;5.15;;;;;;;10.57;100.00;100650.22;10355253;28;20057;-86
2022/10/21 20:19:15;;;;;;;16.35;4.95;;;;;;;10.61;100.00;100660.00;10356231;28;20124;-87
2022/10/21 20:24:16;;;;;;;16.65;6.18;;;;;;;10.54;100.00;100674.53;10357343;28;20117;-86
2022/10/21 20:29:17;;;;;;;12.50;5.03;;;;;;;10.46;100.00;100673.28;10360695;28;20060;-81
2022/10/21 20:34:18;;;;;;;14.37;5.93;;;;;;;10.38;100.00;100678.16;10361223;28;20065;-83
2022/10/21 20:39:18;;;;;;;15.85;5.63;;;;;;;10.34;100.00;100678.84;10364081;28;20111;-83
2022/10/21 20:44:19;;;;;;;18.00;5.75;;;;;;;10.31;100.00;100681.31;10362160;28;20042;-83
2022/10/21 20:49:19;;;;;;;17.35;6.45;;;;;;;10.39;100.00;100690.44;10364933;28;20042;-83
2022/10/21 20:54:21;;;;;;;16.80;5.97;;;;;;;10.34;100.00;100688.38;10362560;28;20548;-83
2022/10/21 20:59:22;;;;;;;17.88;5.80;;;;;;;10.42;100.00;100700.13;10363796;28;20398;-83
2022/10/21 21:04:24;;;;;;;22.13;5.78;;;;;;;10.34;100.00;100694.53;10363854;28;20041;-83
2022/10/21 21:09:24;;;;;;;18.17;6.22;;;;;;;10.38;100.00;100688.63;10363305;28;20041;-84
2022/10/21 21:14:25;;;;;;;20.67;7.22;;;;;;;10.45;100.00;100694.16;10360436;28;20141;-83
2022/10/21 21:19:25;;;;;;;20.40;7.82;;;;;;;10.40;100.00;100694.84;10359089;28;20038;-82
2022/10/21 21:24:26;;;;;;;24.55;6.78;;;;;;;10.41;100.00;100693.09;10346100;28;20038;-82
2022/10/21 21:29:26;;;;;;;17.30;6.97;;;;;;;10.38;100.00;100693.84;10360693;28;20041;-82
2022/10/21 21:34:27;;;;;;;16.00;6.30;;;;;;;10.36;100.00;100692.88;10363057;28;20040;-82
2022/10/21 21:39:27;;;;;;;19.27;5.63;;;;;;;10.31;100.00;100691.78;10361726;28;20116;-83
2022/10/21 21:44:28;;;;;;;13.55;6.47;;;;;;;10.26;100.00;100683.69;10351105;28;20566;-82
2022/10/21 21:49:28;;;;;;;18.92;6.68;;;;;;;10.34;100.00;100686.69;10360838;28;20073;-82
2022/10/21 21:54:29;;;;;;;40.15;10.38;;;;;;;10.35;100.00;100687.56;10359765;28;20041;-81
2022/10/21 21:59:29;;;;;;;12.55;6.40;;;;;;;10.34;100.00;100684.06;10360365;28;20050;-82
2022/10/21 22:04:30;;;;;;;43.72;12.02;;;;;;;10.33;100.00;100678.75;10358314;28;20044;-83
2022/10/21 22:09:31;;;;;;;30.20;6.47;;;;;;;10.31;100.00;100680.41;10358444;28;20474;-82
2022/10/21 22:14:31;;;;;;;17.52;7.80;;;;;;;10.24;100.00;100674.00;10358611;28;20046;-81
2022/10/21 22:19:32;;;;;;;16.98;6.35;;;;;;;10.19;100.00;100683.38;10358844;28;20164;-82
2022/10/21 22:24:33;;;;;;;26.10;6.85;;;;;;;10.09;100.00;100689.88;10358897;28;20038;-81
2022/10/21 22:29:33;;;;;;;24.20;6.50;;;;;;;10.06;100.00;100684.50;10341242;28;20037;-81
2022/10/21 22:34:34;;;;;;;15.65;8.13;;;;;;;9.97;100.00;100678.00;10356940;28;20053;-81
2022/10/21 22:39:34;;;;;;;39.28;9.00;;;;;;;9.92;100.00;100662.94;10358707;28;20172;-80
2022/10/21 22:44:35;;;;;;;17.38;6.65;;;;;;;9.89;100.00;100666.28;10355291;28;20430;-81
2022/10/21 22:49:35;;;;;;;22.10;6.50;;;;;;;9.84;100.00;100659.97;10357828;28;20044;-81